sensor_id;sensor_type;location;lat;lon;timestamp;pressure;altitude;pressure_sealevel;temperature;humidity
21011;BME280;10663;42.714;23.274;2023-02-10T00:00:15;96599.94;;;-7.14;83.56
21011;BME280;10663;42.714;23.274;2023-02-10T00:01:46;96597.38;;;-7.14;83.73
21011;BME280;10663;42.714;23.274;2023-02-10T00:03:16;96600.59;;;-7.23;83.83
21011;BME280;10663;42.714;23.274;2023-02-10T00:04:47;96591.22;;;-7.24;84.41
21011;BME280;10663;42.714;23.274;2023-02-10T00:06:20;96601.31;;;-7.21;84.03
21011;BME280;10663;42.714;23.274;2023-02-10T00:07:52;96600.25;;;-7.19;83.79
21011;BME280;10663;42.714;23.274;2023-02-10T00:09:23;96590.41;;;-7.25;83.78
21011;BME280;10663;42.714;23.274;2023-02-10T00:11:02;96597.22;;;-7.36;84.44
21011;BME280;10663;42.714;23.274;2023-02-10T00:12:37;96588.09;;;-7.40;84.50
21011;BME280;10663;42.714;23.274;2023-02-10T00:14:09;96596.03;;;-7.43;84.72
21011;BME280;10663;42.714;23.274;2023-02-10T00:15:40;96589.66;;;-7.38;85.34
21011;BME280;10663;42.714;23.274;2023-02-10T00:17:11;96594.84;;;-7.27;85.06
21011;BME280;10663;42.714;23.274;2023-02-10T00:18:43;96590.63;;;-7.28;85.01
21011;BME280;10663;42.714;23.274;2023-02-10T00:20:14;96586.19;;;-7.26;85.16
21011;BME280;10663;42.714;23.274;2023-02-10T00:21:45;96588.88;;;-7.27;85.08
21011;BME280;10663;42.714;23.274;2023-02-10T00:23:16;96586.56;;;-7.19;84.57
21011;BME280;10663;42.714;23.274;2023-02-10T00:24:46;96587.38;;;-7.19;83.75
21011;BME280;10663;42.714;23.274;2023-02-10T00:26:17;96580.31;;;-7.28;84.67
21011;BME280;10663;42.714;23.274;2023-02-10T00:27:48;96594.72;;;-7.25;84.47
21011;BME280;10663;42.714;23.274;2023-02-10T00:29:19;96586.94;;;-7.36;85.16
21011;BME280;10663;42.714;23.274;2023-02-10T00:30:50;96584.72;;;-7.41;85.19
21011;BME280;10663;42.714;23.274;2023-02-10T00:32:21;96587.06;;;-7.38;85.67
21011;BME280;10663;42.714;23.274;2023-02-10T00:33:52;96584.81;;;-7.42;85.10
21011;BME280;10663;42.714;23.274;2023-02-10T00:35:23;96576.53;;;-7.35;85.12
21011;BME280;10663;42.714;23.274;2023-02-10T00:36:54;96580.78;;;-7.46;85.20
21011;BME280;10663;42.714;23.274;2023-02-10T00:38:24;96579.13;;;-7.35;84.94
21011;BME280;10663;42.714;23.274;2023-02-10T00:39:55;96573.16;;;-7.35;85.20
21011;BME280;10663;42.714;23.274;2023-02-10T00:41:26;96571.50;;;-7.36;84.96
21011;BME280;10663;42.714;23.274;2023-02-10T00:42:58;96568.41;;;-7.29;85.04
21011;BME280;10663;42.714;23.274;2023-02-10T00:44:29;96563.13;;;-7.27;84.35
21011;BME280;10663;42.714;23.274;2023-02-10T00:46:00;96564.19;;;-7.30;84.49
21011;BME280;10663;42.714;23.274;2023-02-10T00:47:31;96570.38;;;-7.32;84.89
21011;BME280;10663;42.714;23.274;2023-02-10T00:49:02;96564.28;;;-7.31;83.82
21011;BME280;10663;42.714;23.274;2023-02-10T00:50:33;96567.78;;;-7.32;84.01
21011;BME280;10663;42.714;23.274;2023-02-10T00:52:04;96564.19;;;-7.30;83.91
21011;BME280;10663;42.714;23.274;2023-02-10T00:53:35;96569.44;;;-7.31;82.97
21011;BME280;10663;42.714;23.274;2023-02-10T00:55:06;96562.13;;;-7.37;84.18
21011;BME280;10663;42.714;23.274;2023-02-10T00:56:36;96560.63;;;-7.40;84.46
21011;BME280;10663;42.714;23.274;2023-02-10T00:58:07;96564.03;;;-7.39;84.47
21011;BME280;10663;42.714;23.274;2023-02-10T00:59:38;96560.84;;;-7.43;84.47
21011;BME280;10663;42.714;23.274;2023-02-10T01:01:09;96558.78;;;-7.38;84.30
21011;BME280;10663;42.714;23.274;2023-02-10T01:02:41;96554.97;;;-7.45;84.85
21011;BME280;10663;42.714;23.274;2023-02-10T01:04:15;96556.19;;;-7.38;84.77
21011;BME280;10663;42.714;23.274;2023-02-10T01:05:46;96559.28;;;-7.45;85.10
21011;BME280;10663;42.714;23.274;2023-02-10T01:07:17;96557.66;;;-7.46;85.09
21011;BME280;10663;42.714;23.274;2023-02-10T01:08:47;96555.41;;;-7.51;85.44
21011;BME280;10663;42.714;23.274;2023-02-10T01:10:19;96564.16;;;-7.53;85.00
21011;BME280;10663;42.714;23.274;2023-02-10T01:11:50;96557.59;;;-7.58;85.74
21011;BME280;10663;42.714;23.274;2023-02-10T01:13:21;96551.22;;;-7.65;85.84
21011;BME280;10663;42.714;23.274;2023-02-10T01:14:52;96557.19;;;-7.64;86.34
21011;BME280;10663;42.714;23.274;2023-02-10T01:16:23;96557.84;;;-7.73;85.79
21011;BME280;10663;42.714;23.274;2023-02-10T01:17:54;96552.00;;;-7.75;85.92
21011;BME280;10663;42.714;23.274;2023-02-10T01:19:25;96557.84;;;-7.73;86.02
21011;BME280;10663;42.714;23.274;2023-02-10T01:20:56;96554.16;;;-7.82;85.86
21011;BME280;10663;42.714;23.274;2023-02-10T01:22:27;96560.25;;;-7.83;86.50
21011;BME280;10663;42.714;23.274;2023-02-10T01:23:58;96555.22;;;-7.84;86.40
21011;BME280;10663;42.714;23.274;2023-02-10T01:25:28;96551.81;;;-7.85;86.54
21011;BME280;10663;42.714;23.274;2023-02-10T01:26:59;96549.44;;;-7.88;86.30
21011;BME280;10663;42.714;23.274;2023-02-10T01:28:30;96545.56;;;-7.94;86.84
21011;BME280;10663;42.714;23.274;2023-02-10T01:30:02;96541.53;;;-7.85;86.11
21011;BME280;10663;42.714;23.274;2023-02-10T01:31:33;96547.59;;;-7.86;86.30
21011;BME280;10663;42.714;23.274;2023-02-10T01:33:04;96546.59;;;-7.96;86.81
21011;BME280;10663;42.714;23.274;2023-02-10T01:34:36;96551.63;;;-7.95;86.81
21011;BME280;10663;42.714;23.274;2023-02-10T01:36:11;96544.50;;;-7.91;86.61
21011;BME280;10663;42.714;23.274;2023-02-10T01:37:43;96548.03;;;-7.92;86.95
21011;BME280;10663;42.714;23.274;2023-02-10T01:39:15;96545.88;;;-7.98;87.42
21011;BME280;10663;42.714;23.274;2023-02-10T01:40:48;96545.13;;;-8.00;87.05
21011;BME280;10663;42.714;23.274;2023-02-10T01:42:19;96543.91;;;-7.95;86.65
21011;BME280;10663;42.714;23.274;2023-02-10T01:45:35;96549.34;;;-7.99;86.02
21011;BME280;10663;42.714;23.274;2023-02-10T01:47:06;96536.84;;;-8.04;86.74
21011;BME280;10663;42.714;23.274;2023-02-10T01:48:37;96531.81;;;-8.05;86.91
21011;BME280;10663;42.714;23.274;2023-02-10T01:50:08;96528.19;;;-8.03;86.51
21011;BME280;10663;42.714;23.274;2023-02-10T01:51:54;96527.78;;;-7.97;86.30
21011;BME280;10663;42.714;23.274;2023-02-10T01:53:28;96530.63;;;-7.88;85.90
21011;BME280;10663;42.714;23.274;2023-02-10T01:55:03;96529.59;;;-7.86;85.68
21011;BME280;10663;42.714;23.274;2023-02-10T01:56:35;96532.56;;;-7.79;85.23
21011;BME280;10663;42.714;23.274;2023-02-10T01:58:09;96523.72;;;-7.75;84.48
21011;BME280;10663;42.714;23.274;2023-02-10T01:59:41;96517.31;;;-7.70;84.89
21011;BME280;10663;42.714;23.274;2023-02-10T02:01:12;96514.44;;;-7.65;84.25
21011;BME280;10663;42.714;23.274;2023-02-10T02:02:43;96514.00;;;-7.72;83.98
21011;BME280;10663;42.714;23.274;2023-02-10T02:04:15;96515.66;;;-7.71;84.07
21011;BME280;10663;42.714;23.274;2023-02-10T02:05:46;96515.47;;;-7.68;83.66
21011;BME280;10663;42.714;23.274;2023-02-10T02:07:18;96507.66;;;-7.79;83.52
21011;BME280;10663;42.714;23.274;2023-02-10T02:08:49;96510.53;;;-7.71;83.16
21011;BME280;10663;42.714;23.274;2023-02-10T02:10:23;96510.44;;;-7.82;82.88
21011;BME280;10663;42.714;23.274;2023-02-10T02:12:19;96509.97;;;-7.87;83.60
21011;BME280;10663;42.714;23.274;2023-02-10T02:14:23;96511.03;;;-8.02;83.62
21011;BME280;10663;42.714;23.274;2023-02-10T02:17:58;96509.78;;;-8.09;84.52
21011;BME280;10663;42.714;23.274;2023-02-10T02:25:32;96503.97;;;-8.24;85.75
21011;BME280;10663;42.714;23.274;2023-02-10T02:31:00;96512.13;;;-8.30;86.46
21011;BME280;10663;42.714;23.274;2023-02-10T02:32:48;96505.56;;;-8.34;86.69
21011;BME280;10663;42.714;23.274;2023-02-10T02:36:03;96499.16;;;-8.28;86.82
21011;BME280;10663;42.714;23.274;2023-02-10T02:37:38;96508.22;;;-8.36;86.73
21011;BME280;10663;42.714;23.274;2023-02-10T02:39:11;96506.09;;;-8.42;86.87
21011;BME280;10663;42.714;23.274;2023-02-10T02:40:41;96505.59;;;-8.47;87.17
21011;BME280;10663;42.714;23.274;2023-02-10T02:43:54;96503.47;;;-8.29;86.28
21011;BME280;10663;42.714;23.274;2023-02-10T02:45:53;96507.09;;;-8.32;86.33
21011;BME280;10663;42.714;23.274;2023-02-10T02:49:45;96505.06;;;-8.52;86.22
21011;BME280;10663;42.714;23.274;2023-02-10T02:55:13;96498.38;;;-8.54;87.60
21011;BME280;10663;42.714;23.274;2023-02-10T02:57:12;96495.63;;;-8.51;87.55
21011;BME280;10663;42.714;23.274;2023-02-10T03:00:29;96491.44;;;-8.65;88.04
21011;BME280;10663;42.714;23.274;2023-02-10T03:02:07;96492.41;;;-8.55;87.85
21011;BME280;10663;42.714;23.274;2023-02-10T03:03:42;96488.63;;;-8.62;87.60
21011;BME280;10663;42.714;23.274;2023-02-10T03:05:18;96490.97;;;-8.46;87.33
21011;BME280;10663;42.714;23.274;2023-02-10T03:06:51;96489.22;;;-8.46;86.78
21011;BME280;10663;42.714;23.274;2023-02-10T03:08:22;96494.25;;;-8.44;86.37
21011;BME280;10663;42.714;23.274;2023-02-10T03:09:53;96488.94;;;-8.54;86.50
21011;BME280;10663;42.714;23.274;2023-02-10T03:11:30;96489.97;;;-8.56;86.86
21011;BME280;10663;42.714;23.274;2023-02-10T03:13:14;96494.59;;;-8.61;86.80
21011;BME280;10663;42.714;23.274;2023-02-10T03:14:58;96497.66;;;-8.69;87.58
21011;BME280;10663;42.714;23.274;2023-02-10T03:16:44;96499.41;;;-8.70;87.88
21011;BME280;10663;42.714;23.274;2023-02-10T03:18:24;96499.41;;;-8.70;88.36
21011;BME280;10663;42.714;23.274;2023-02-10T03:20:03;96497.56;;;-8.67;88.13
21011;BME280;10663;42.714;23.274;2023-02-10T03:22:01;96500.44;;;-8.59;87.79
21011;BME280;10663;42.714;23.274;2023-02-10T03:23:49;96496.66;;;-8.66;87.51
21011;BME280;10663;42.714;23.274;2023-02-10T03:25:33;96498.59;;;-8.70;87.86
21011;BME280;10663;42.714;23.274;2023-02-10T03:27:06;96493.38;;;-8.68;87.94
21011;BME280;10663;42.714;23.274;2023-02-10T03:29:21;96499.63;;;-8.47;87.52
21011;BME280;10663;42.714;23.274;2023-02-10T03:31:12;96488.63;;;-8.62;87.17
21011;BME280;10663;42.714;23.274;2023-02-10T03:32:43;96498.41;;;-8.67;87.15
21011;BME280;10663;42.714;23.274;2023-02-10T03:34:14;96494.78;;;-8.52;86.70
21011;BME280;10663;42.714;23.274;2023-02-10T03:35:45;96494.50;;;-8.47;86.71
21011;BME280;10663;42.714;23.274;2023-02-10T03:37:16;96506.28;;;-8.45;86.10
21011;BME280;10663;42.714;23.274;2023-02-10T03:38:47;96496.72;;;-8.55;85.94
21011;BME280;10663;42.714;23.274;2023-02-10T03:40:18;96495.00;;;-8.55;86.12
21011;BME280;10663;42.714;23.274;2023-02-10T03:41:49;96491.50;;;-8.54;86.16
21011;BME280;10663;42.714;23.274;2023-02-10T03:43:20;96487.28;;;-8.55;85.83
21011;BME280;10663;42.714;23.274;2023-02-10T03:44:52;96490.06;;;-8.58;85.86
21011;BME280;10663;42.714;23.274;2023-02-10T03:46:22;96484.31;;;-8.61;85.66
21011;BME280;10663;42.714;23.274;2023-02-10T03:47:53;96480.00;;;-8.61;85.89
21011;BME280;10663;42.714;23.274;2023-02-10T03:49:24;96479.28;;;-8.63;86.23
21011;BME280;10663;42.714;23.274;2023-02-10T03:50:55;96475.19;;;-8.65;85.86
21011;BME280;10663;42.714;23.274;2023-02-10T03:52:26;96479.59;;;-8.80;86.33
21011;BME280;10663;42.714;23.274;2023-02-10T03:53:57;96471.09;;;-8.68;86.39
21011;BME280;10663;42.714;23.274;2023-02-10T03:55:28;96472.50;;;-8.64;86.36
21011;BME280;10663;42.714;23.274;2023-02-10T03:56:59;96465.53;;;-8.62;86.04
21011;BME280;10663;42.714;23.274;2023-02-10T03:58:30;96473.03;;;-8.59;86.04
21011;BME280;10663;42.714;23.274;2023-02-10T04:00:01;96472.31;;;-8.61;86.29
21011;BME280;10663;42.714;23.274;2023-02-10T04:01:33;96473.75;;;-8.57;86.04
21011;BME280;10663;42.714;23.274;2023-02-10T04:03:04;96472.50;;;-8.64;86.29
21011;BME280;10663;42.714;23.274;2023-02-10T04:04:35;96474.88;;;-8.74;86.22
21011;BME280;10663;42.714;23.274;2023-02-10T04:06:06;96476.44;;;-8.84;86.48
21011;BME280;10663;42.714;23.274;2023-02-10T04:07:38;96469.97;;;-8.77;86.94
21011;BME280;10663;42.714;23.274;2023-02-10T04:09:08;96476.09;;;-8.79;86.59
21011;BME280;10663;42.714;23.274;2023-02-10T04:10:39;96476.84;;;-8.77;87.46
21011;BME280;10663;42.714;23.274;2023-02-10T04:12:10;96472.22;;;-8.85;87.05
21011;BME280;10663;42.714;23.274;2023-02-10T04:13:41;96470.88;;;-8.90;87.59
21011;BME280;10663;42.714;23.274;2023-02-10T04:15:12;96476.44;;;-8.84;87.66
21011;BME280;10663;42.714;23.274;2023-02-10T04:16:43;96471.78;;;-8.79;87.67
21011;BME280;10663;42.714;23.274;2023-02-10T04:18:14;96472.00;;;-8.69;87.68
21011;BME280;10663;42.714;23.274;2023-02-10T04:19:45;96467.97;;;-8.73;87.53
21011;BME280;10663;42.714;23.274;2023-02-10T04:21:16;96467.97;;;-8.73;86.96
21011;BME280;10663;42.714;23.274;2023-02-10T04:22:46;96473.72;;;-8.82;86.88
21011;BME280;10663;42.714;23.274;2023-02-10T04:24:17;96477.25;;;-8.83;87.06
21011;BME280;10663;42.714;23.274;2023-02-10T04:25:48;96476.31;;;-8.82;86.74
21011;BME280;10663;42.714;23.274;2023-02-10T04:27:19;96468.19;;;-8.89;86.76
21011;BME280;10663;42.714;23.274;2023-02-10T04:28:53;96470.25;;;-8.94;87.02
21011;BME280;10663;42.714;23.274;2023-02-10T04:30:23;96470.97;;;-8.92;86.62
21011;BME280;10663;42.714;23.274;2023-02-10T04:31:54;96473.94;;;-8.98;87.03
21011;BME280;10663;42.714;23.274;2023-02-10T04:33:25;96467.69;;;-9.07;86.87
21011;BME280;10663;42.714;23.274;2023-02-10T04:34:56;96468.41;;;-9.04;87.42
21011;BME280;10663;42.714;23.274;2023-02-10T04:36:27;96481.53;;;-8.96;87.62
21011;BME280;10663;42.714;23.274;2023-02-10T04:37:58;96473.84;;;-8.96;87.20
21011;BME280;10663;42.714;23.274;2023-02-10T04:39:29;96482.88;;;-8.91;86.95
21011;BME280;10663;42.714;23.274;2023-02-10T04:41:00;96467.47;;;-8.91;86.89
21011;BME280;10663;42.714;23.274;2023-02-10T04:42:33;96474.06;;;-8.87;86.62
21011;BME280;10663;42.714;23.274;2023-02-10T04:44:04;96474.06;;;-8.87;86.48
21011;BME280;10663;42.714;23.274;2023-02-10T04:45:36;96477.75;;;-8.91;86.74
21011;BME280;10663;42.714;23.274;2023-02-10T04:47:07;96476.63;;;-8.87;86.19
21011;BME280;10663;42.714;23.274;2023-02-10T04:48:38;96474.88;;;-8.86;86.60
21011;BME280;10663;42.714;23.274;2023-02-10T04:50:09;96477.75;;;-8.78;86.46
21011;BME280;10663;42.714;23.274;2023-02-10T04:51:40;96473.34;;;-8.76;85.95
21011;BME280;10663;42.714;23.274;2023-02-10T04:53:10;96479.09;;;-8.85;85.77
21011;BME280;10663;42.714;23.274;2023-02-10T04:54:41;96484.22;;;-8.85;86.51
21011;BME280;10663;42.714;23.274;2023-02-10T04:56:12;96471.69;;;-8.90;86.78
21011;BME280;10663;42.714;23.274;2023-02-10T04:57:44;96477.97;;;-8.94;86.97
21011;BME280;10663;42.714;23.274;2023-02-10T04:59:14;96481.63;;;-8.98;87.22
21011;BME280;10663;42.714;23.274;2023-02-10T05:00:45;96483.78;;;-8.92;87.42
21011;BME280;10663;42.714;23.274;2023-02-10T05:02:16;96481.94;;;-8.90;87.89
21011;BME280;10663;42.714;23.274;2023-02-10T05:03:47;96483.78;;;-8.92;87.70
21011;BME280;10663;42.714;23.274;2023-02-10T05:05:18;96483.00;;;-8.92;87.43
21011;BME280;10663;42.714;23.274;2023-02-10T05:06:49;96488.13;;;-8.80;87.80
21011;BME280;10663;42.714;23.274;2023-02-10T05:08:20;96490.38;;;-8.75;87.58
21011;BME280;10663;42.714;23.274;2023-02-10T05:09:53;96495.63;;;-8.77;87.36
21011;BME280;10663;42.714;23.274;2023-02-10T05:11:24;96490.78;;;-8.81;87.07
21011;BME280;10663;42.714;23.274;2023-02-10T05:12:55;96494.06;;;-8.92;87.06
21011;BME280;10663;42.714;23.274;2023-02-10T05:14:25;96498.16;;;-8.89;87.23
21011;BME280;10663;42.714;23.274;2023-02-10T05:15:56;96496.34;;;-8.87;87.53
21011;BME280;10663;42.714;23.274;2023-02-10T05:17:27;96495.69;;;-8.91;87.41
21011;BME280;10663;42.714;23.274;2023-02-10T05:18:58;96498.59;;;-8.95;87.91
21011;BME280;10663;42.714;23.274;2023-02-10T05:20:28;96501.66;;;-9.03;88.16
21011;BME280;10663;42.714;23.274;2023-02-10T05:21:59;96498.59;;;-8.95;88.09
21011;BME280;10663;42.714;23.274;2023-02-10T05:23:30;96514.28;;;-8.87;87.52
21011;BME280;10663;42.714;23.274;2023-02-10T05:25:01;96515.41;;;-8.91;87.11
21011;BME280;10663;42.714;23.274;2023-02-10T05:26:32;96524.84;;;-8.92;87.42
21011;BME280;10663;42.714;23.274;2023-02-10T05:28:02;96521.59;;;-8.94;87.69
21011;BME280;10663;42.714;23.274;2023-02-10T05:29:33;96524.56;;;-8.87;87.33
21011;BME280;10663;42.714;23.274;2023-02-10T05:31:04;96529.59;;;-8.86;87.07
21011;BME280;10663;42.714;23.274;2023-02-10T05:32:36;96529.88;;;-8.90;87.43
21011;BME280;10663;42.714;23.274;2023-02-10T05:34:10;96529.38;;;-8.95;87.22
21011;BME280;10663;42.714;23.274;2023-02-10T05:35:43;96529.47;;;-8.97;87.69
21011;BME280;10663;42.714;23.274;2023-02-10T05:37:21;96520.53;;;-8.91;87.39
21011;BME280;10663;42.714;23.274;2023-02-10T05:38:59;96519.03;;;-8.94;87.07
21011;BME280;10663;42.714;23.274;2023-02-10T05:40:49;96526.19;;;-8.99;87.01
21011;BME280;10663;42.714;23.274;2023-02-10T05:42:20;96522.59;;;-8.96;86.68
21011;BME280;10663;42.714;23.274;2023-02-10T05:43:50;96525.44;;;-9.01;86.47
21011;BME280;10663;42.714;23.274;2023-02-10T05:45:21;96531.03;;;-8.94;86.81
21011;BME280;10663;42.714;23.274;2023-02-10T05:46:53;96530.41;;;-8.85;86.17
21011;BME280;10663;42.714;23.274;2023-02-10T05:48:24;96537.63;;;-8.78;85.33
21011;BME280;10663;42.714;23.274;2023-02-10T05:49:55;96539.34;;;-8.78;85.00
21011;BME280;10663;42.714;23.274;2023-02-10T05:51:26;96540.91;;;-8.76;84.22
21011;BME280;10663;42.714;23.274;2023-02-10T05:52:56;96542.72;;;-8.14;90.51
21011;BME280;10663;42.714;23.274;2023-02-10T05:54:27;96533.84;;;-7.98;90.82
21011;BME280;10663;42.714;23.274;2023-02-10T05:55:59;96541.28;;;-7.69;90.61
21011;BME280;10663;42.714;23.274;2023-02-10T05:57:29;96545.84;;;-7.49;91.08
21011;BME280;10663;42.714;23.274;2023-02-10T05:59:00;96539.25;;;-7.53;89.22
21011;BME280;10663;42.714;23.274;2023-02-10T06:00:31;96542.50;;;-7.38;88.28
21011;BME280;10663;42.714;23.274;2023-02-10T06:02:02;96542.69;;;-7.29;87.41
21011;BME280;10663;42.714;23.274;2023-02-10T06:03:33;96543.13;;;-7.00;88.87
21011;BME280;10663;42.714;23.274;2023-02-10T06:05:04;96538.66;;;-6.74;88.89
21011;BME280;10663;42.714;23.274;2023-02-10T06:06:35;96540.09;;;-6.59;89.36
21011;BME280;10663;42.714;23.274;2023-02-10T06:08:06;96541.16;;;-6.50;88.22
21011;BME280;10663;42.714;23.274;2023-02-10T06:09:37;96544.59;;;-6.38;88.22
21011;BME280;10663;42.714;23.274;2023-02-10T06:11:09;96549.81;;;-6.51;87.00
21011;BME280;10663;42.714;23.274;2023-02-10T06:12:40;96548.06;;;-6.51;85.70
21011;BME280;10663;42.714;23.274;2023-02-10T06:14:11;96549.84;;;-6.40;86.55
21011;BME280;10663;42.714;23.274;2023-02-10T06:15:41;96548.22;;;-6.30;86.64
21011;BME280;10663;42.714;23.274;2023-02-10T06:17:12;96557.81;;;-6.32;85.57
21011;BME280;10663;42.714;23.274;2023-02-10T06:18:43;96562.19;;;-6.21;85.62
21011;BME280;10663;42.714;23.274;2023-02-10T06:20:25;96561.72;;;-6.15;85.14
21011;BME280;10663;42.714;23.274;2023-02-10T06:21:56;96561.22;;;-6.31;83.94
21011;BME280;10663;42.714;23.274;2023-02-10T06:23:26;96564.19;;;-6.71;81.88
21011;BME280;10663;42.714;23.274;2023-02-10T06:24:57;96554.72;;;-6.59;84.59
21011;BME280;10663;42.714;23.274;2023-02-10T06:26:28;96564.06;;;-6.69;82.62
21011;BME280;10663;42.714;23.274;2023-02-10T06:27:59;96566.84;;;-6.72;81.98
21011;BME280;10663;42.714;23.274;2023-02-10T06:29:30;96571.19;;;-6.73;82.71
21011;BME280;10663;42.714;23.274;2023-02-10T06:31:00;96565.63;;;-6.56;83.39
21011;BME280;10663;42.714;23.274;2023-02-10T06:32:31;96564.56;;;-6.53;82.26
21011;BME280;10663;42.714;23.274;2023-02-10T06:34:02;96572.78;;;-6.37;83.53
21011;BME280;10663;42.714;23.274;2023-02-10T06:35:37;96561.81;;;-6.06;85.33
21011;BME280;10663;42.714;23.274;2023-02-10T06:37:08;96574.06;;;-6.65;81.02
21011;BME280;10663;42.714;23.274;2023-02-10T06:38:39;96578.41;;;-6.43;83.69
21011;BME280;10663;42.714;23.274;2023-02-10T06:40:10;96572.88;;;-5.92;85.42
21011;BME280;10663;42.714;23.274;2023-02-10T06:41:42;96571.88;;;-5.69;85.26
21011;BME280;10663;42.714;23.274;2023-02-10T06:43:12;96569.16;;;-5.56;84.04
21011;BME280;10663;42.714;23.274;2023-02-10T06:45:01;96565.50;;;-5.43;83.22
21011;BME280;10663;42.714;23.274;2023-02-10T06:46:40;96574.16;;;-5.33;82.68
21011;BME280;10663;42.714;23.274;2023-02-10T06:48:13;96573.34;;;-5.33;81.68
21011;BME280;10663;42.714;23.274;2023-02-10T06:49:44;96575.19;;;-5.24;81.87
21011;BME280;10663;42.714;23.274;2023-02-10T06:51:15;96575.50;;;-5.60;79.40
21011;BME280;10663;42.714;23.274;2023-02-10T06:52:46;96580.53;;;-5.59;81.34
21011;BME280;10663;42.714;23.274;2023-02-10T06:54:18;96585.16;;;-5.96;78.28
21011;BME280;10663;42.714;23.274;2023-02-10T06:55:48;96586.78;;;-5.84;79.77
21011;BME280;10663;42.714;23.274;2023-02-10T06:57:19;96585.72;;;-5.59;81.26
21011;BME280;10663;42.714;23.274;2023-02-10T06:58:53;96582.50;;;-5.40;81.26
21011;BME280;10663;42.714;23.274;2023-02-10T07:00:24;96589.03;;;-5.25;80.79
21011;BME280;10663;42.714;23.274;2023-02-10T07:01:55;96589.63;;;-5.21;79.84
21011;BME280;10663;42.714;23.274;2023-02-10T07:03:30;96590.91;;;-5.16;79.89
21011;BME280;10663;42.714;23.274;2023-02-10T07:05:02;96588.78;;;-5.11;80.25
21011;BME280;10663;42.714;23.274;2023-02-10T07:06:34;96593.97;;;-5.22;78.36
21011;BME280;10663;42.714;23.274;2023-02-10T07:08:06;96591.47;;;-5.89;75.35
21011;BME280;10663;42.714;23.274;2023-02-10T07:09:37;96589.59;;;-5.64;78.41
21011;BME280;10663;42.714;23.274;2023-02-10T07:11:08;96580.06;;;-5.53;78.60
21011;BME280;10663;42.714;23.274;2023-02-10T07:12:39;96577.34;;;-5.40;79.00
21011;BME280;10663;42.714;23.274;2023-02-10T07:14:09;96575.53;;;-5.17;80.38
21011;BME280;10663;42.714;23.274;2023-02-10T07:15:40;96577.34;;;-4.97;80.87
21011;BME280;10663;42.714;23.274;2023-02-10T07:17:12;96581.78;;;-5.20;76.70
21011;BME280;10663;42.714;23.274;2023-02-10T07:18:43;96574.47;;;-5.15;78.28
21011;BME280;10663;42.714;23.274;2023-02-10T07:20:14;96580.44;;;-5.69;75.36
21011;BME280;10663;42.714;23.274;2023-02-10T07:21:44;96577.69;;;-5.45;77.54
21011;BME280;10663;42.714;23.274;2023-02-10T07:23:15;96570.72;;;-5.11;79.58
21011;BME280;10663;42.714;23.274;2023-02-10T07:24:46;96575.38;;;-5.05;78.99
21011;BME280;10663;42.714;23.274;2023-02-10T07:26:17;96572.50;;;-4.91;79.09
21011;BME280;10663;42.714;23.274;2023-02-10T07:27:51;96576.84;;;-4.91;77.90
21011;BME280;10663;42.714;23.274;2023-02-10T07:29:21;96575.63;;;-4.76;78.46
21011;BME280;10663;42.714;23.274;2023-02-10T07:30:52;96572.38;;;-4.89;76.27
21011;BME280;10663;42.714;23.274;2023-02-10T07:32:24;96567.78;;;-4.85;77.08
21011;BME280;10663;42.714;23.274;2023-02-10T07:33:54;96581.78;;;-4.88;76.15
21011;BME280;10663;42.714;23.274;2023-02-10T07:35:25;96587.03;;;-5.10;75.47
21011;BME280;10663;42.714;23.274;2023-02-10T07:36:56;96584.81;;;-5.15;76.83
21011;BME280;10663;42.714;23.274;2023-02-10T07:38:28;96583.03;;;-5.14;75.90
21011;BME280;10663;42.714;23.274;2023-02-10T07:39:59;96580.16;;;-5.32;73.67
21011;BME280;10663;42.714;23.274;2023-02-10T07:41:29;96584.69;;;-5.24;74.58
21011;BME280;10663;42.714;23.274;2023-02-10T07:43:00;96571.44;;;-4.88;79.06
21011;BME280;10663;42.714;23.274;2023-02-10T07:44:58;96569.00;;;-4.69;78.33
21011;BME280;10663;42.714;23.274;2023-02-10T07:46:29;96578.31;;;-5.09;73.55
21011;BME280;10663;42.714;23.274;2023-02-10T07:48:00;96573.75;;;-5.06;73.17
21011;BME280;10663;42.714;23.274;2023-02-10T07:49:30;96573.03;;;-5.08;76.09
21011;BME280;10663;42.714;23.274;2023-02-10T07:51:02;96573.91;;;-4.86;76.26
21011;BME280;10663;42.714;23.274;2023-02-10T07:52:33;96570.63;;;-4.88;75.08
21011;BME280;10663;42.714;23.274;2023-02-10T07:54:04;96586.81;;;-4.86;73.93
21011;BME280;10663;42.714;23.274;2023-02-10T07:55:36;96577.00;;;-4.72;75.31
21011;BME280;10663;42.714;23.274;2023-02-10T07:57:08;96580.78;;;-4.76;73.16
21011;BME280;10663;42.714;23.274;2023-02-10T07:58:39;96582.16;;;-4.72;72.96
21011;BME280;10663;42.714;23.274;2023-02-10T08:00:10;96581.09;;;-4.37;75.74
21011;BME280;10663;42.714;23.274;2023-02-10T08:01:46;96579.50;;;-4.29;73.91
21011;BME280;10663;42.714;23.274;2023-02-10T08:03:16;96582.00;;;-4.18;73.83
21011;BME280;10663;42.714;23.274;2023-02-10T08:04:47;96586.72;;;-4.02;74.04
21011;BME280;10663;42.714;23.274;2023-02-10T08:06:23;96585.91;;;-4.44;71.13
21011;BME280;10663;42.714;23.274;2023-02-10T08:07:54;96584.09;;;-4.32;73.32
21011;BME280;10663;42.714;23.274;2023-02-10T08:09:25;96582.97;;;-4.39;69.96
21011;BME280;10663;42.714;23.274;2023-02-10T08:10:56;96591.13;;;-3.93;74.78
21011;BME280;10663;42.714;23.274;2023-02-10T08:12:27;96579.75;;;-4.11;70.11
21011;BME280;10663;42.714;23.274;2023-02-10T08:13:59;96574.44;;;-3.79;73.48
21011;BME280;10663;42.714;23.274;2023-02-10T08:15:30;96570.19;;;-3.80;71.46
21011;BME280;10663;42.714;23.274;2023-02-10T08:17:01;96572.03;;;-3.61;73.07
21011;BME280;10663;42.714;23.274;2023-02-10T08:18:32;96576.50;;;-3.73;69.90
21011;BME280;10663;42.714;23.274;2023-02-10T08:20:04;96572.84;;;-3.70;71.49
21011;BME280;10663;42.714;23.274;2023-02-10T08:21:35;96584.69;;;-3.68;71.83
21011;BME280;10663;42.714;23.274;2023-02-10T08:23:06;96576.31;;;-3.81;68.83
21011;BME280;10663;42.714;23.274;2023-02-10T08:24:37;96576.69;;;-3.95;67.63
21011;BME280;10663;42.714;23.274;2023-02-10T08:26:10;96568.88;;;-4.05;69.68
21011;BME280;10663;42.714;23.274;2023-02-10T08:27:41;96569.75;;;-3.95;70.17
21011;BME280;10663;42.714;23.274;2023-02-10T08:29:12;96569.66;;;-3.84;70.18